Time;durP1;ratioP1;P1;durP2;ratioP2;P2;SDS_P1;SDS_P2;PMS_P1;PMS_P2;Temp;Humidity;BMP_temperature;BMP_pressure;BME280_temperature;BME280_humidity;BME280_pressure;Samples;Min_cycle;Max_cycle;Signal;HPM_P1;HPM_P2
2021/03/13 00:00:37;;;;;;;0.90;0.50;;;17.80;50.00;;;;;;5011761;28;20038;-62
2021/03/13 00:03:02;;;;;;;0.90;0.40;;;17.80;50.00;;;;;;5014027;28;20117;-64
2021/03/13 00:05:33;;;;;;;1.35;0.60;;;17.80;50.00;;;;;;5016062;28;20091;-63
2021/03/13 00:07:59;;;;;;;0.73;0.32;;;17.80;49.90;;;;;;5016733;28;20037;-62
2021/03/13 00:10:25;;;;;;;1.33;0.63;;;17.80;49.80;;;;;;5019595;28;20033;-60
2021/03/13 00:12:50;;;;;;;0.80;0.50;;;17.80;49.90;;;;;;5023380;28;20443;-62
2021/03/13 00:15:16;;;;;;;1.63;0.82;;;17.90;49.90;;;;;;5016669;28;20417;-61
2021/03/13 00:17:43;;;;;;;1.35;0.60;;;17.90;49.80;;;;;;5024881;28;20033;-65
2021/03/13 00:20:09;;;;;;;1.48;0.50;;;17.90;49.80;;;;;;5024384;28;20526;-62
2021/03/13 00:22:35;;;;;;;0.40;0.40;;;17.90;49.80;;;;;;5022463;28;20948;-62
2021/03/13 00:25:00;;;;;;;2.30;0.50;;;17.90;49.80;;;;;;5024326;28;20025;-62
2021/03/13 00:27:26;;;;;;;1.05;0.52;;;17.80;49.80;;;;;;5023870;28;20029;-61
2021/03/13 00:29:51;;;;;;;1.67;0.40;;;17.80;49.90;;;;;;5024403;28;20026;-62
2021/03/13 00:32:17;;;;;;;1.08;0.40;;;17.90;49.90;;;;;;5024239;28;20049;-61
2021/03/13 00:34:42;;;;;;;1.15;0.75;;;17.90;49.80;;;;;;5025060;28;20025;-61
2021/03/13 00:37:08;;;;;;;0.60;0.35;;;17.90;49.90;;;;;;5024403;28;20028;-63
2021/03/13 00:39:33;;;;;;;0.75;0.30;;;17.90;49.90;;;;;;5022985;28;20099;-61
2021/03/13 00:41:59;;;;;;;0.50;0.40;;;17.90;49.90;;;;;;5024248;28;20026;-62
2021/03/13 00:44:24;;;;;;;1.85;0.52;;;17.80;49.90;;;;;;5024514;28;20021;-61
2021/03/13 00:46:50;;;;;;;1.42;0.55;;;17.90;50.00;;;;;;5023872;28;20044;-65
2021/03/13 00:49:15;;;;;;;1.33;0.65;;;17.80;49.90;;;;;;5023783;28;20400;-64
2021/03/13 00:51:41;;;;;;;0.68;0.40;;;17.80;50.00;;;;;;5023538;28;20720;-62
2021/03/13 00:54:06;;;;;;;0.93;0.50;;;17.80;50.00;;;;;;5024743;28;20033;-61
2021/03/13 00:56:32;;;;;;;1.70;0.35;;;17.80;50.00;;;;;;5023988;28;20098;-61
2021/03/13 00:58:57;;;;;;;0.75;0.40;;;17.80;50.00;;;;;;5024714;28;20021;-62
2021/03/13 01:01:23;;;;;;;0.95;0.40;;;17.80;50.00;;;;;;5023499;28;20523;-64
2021/03/13 01:03:48;;;;;;;1.70;0.68;;;17.80;50.00;;;;;;5024267;28;20028;-65
2021/03/13 01:06:14;;;;;;;0.57;0.50;;;17.80;50.10;;;;;;5022954;28;20030;-62
2021/03/13 01:08:39;;;;;;;0.93;0.55;;;17.80;50.20;;;;;;5024316;28;20030;-63
2021/03/13 01:11:05;;;;;;;1.13;0.40;;;17.80;50.20;;;;;;5023772;28;20124;-62
2021/03/13 01:13:30;;;;;;;1.15;0.40;;;17.80;50.20;;;;;;5024383;28;20026;-61
2021/03/13 01:15:56;;;;;;;0.65;0.65;;;17.80;50.30;;;;;;5023978;28;20115;-60
2021/03/13 01:18:21;;;;;;;0.45;0.40;;;17.80;50.20;;;;;;5022889;28;20026;-61
2021/03/13 01:20:48;;;;;;;1.75;0.47;;;17.70;50.20;;;;;;5023358;28;20029;-62
2021/03/13 01:23:13;;;;;;;1.13;0.40;;;17.80;50.20;;;;;;5024641;28;20033;-61
2021/03/13 01:25:39;;;;;;;0.65;0.43;;;17.70;50.10;;;;;;5006025;28;20041;-61
2021/03/13 01:28:04;;;;;;;0.70;0.30;;;17.80;50.00;;;;;;5019976;28;20221;-60
2021/03/13 01:30:30;;;;;;;0.40;0.30;;;17.80;50.00;;;;;;5023607;28;20723;-63
2021/03/13 01:32:55;;;;;;;2.17;0.50;;;17.80;49.70;;;;;;5023999;28;20033;-62
2021/03/13 01:35:21;;;;;;;1.48;0.47;;;17.90;49.80;;;;;;5027231;28;20037;-61
2021/03/13 01:37:47;;;;;;;0.40;0.28;;;17.90;49.60;;;;;;5028205;28;20033;-61
2021/03/13 01:40:16;;;;;;;0.80;0.30;;;17.90;49.40;;;;;;5027729;28;20025;-62
2021/03/13 01:42:45;;;;;;;0.63;0.30;;;17.90;49.50;;;;;;5026815;28;20057;-61
2021/03/13 01:45:11;;;;;;;1.20;0.43;;;17.90;49.40;;;;;;5028023;28;20051;-61
2021/03/13 01:47:37;;;;;;;0.40;0.30;;;17.90;49.70;;;;;;5026819;28;20084;-62
2021/03/13 01:50:04;;;;;;;1.05;0.30;;;17.90;49.60;;;;;;5009743;28;20447;-63
2021/03/13 01:52:31;;;;;;;0.60;0.40;;;17.90;49.60;;;;;;5017361;28;20038;-62
2021/03/13 01:54:56;;;;;;;0.25;0.25;;;17.90;49.60;;;;;;5014757;28;20504;-62
2021/03/13 01:57:22;;;;;;;0.50;0.22;;;17.90;49.60;;;;;;4990159;28;20029;-62
2021/03/13 01:59:47;;;;;;;0.60;0.30;;;17.80;49.60;;;;;;5017769;28;20049;-62
2021/03/13 02:02:14;;;;;;;0.43;0.20;;;17.90;49.60;;;;;;5001898;28;20043;-62
2021/03/13 02:04:39;;;;;;;1.25;0.40;;;17.80;49.50;;;;;;5018055;28;20037;-61
2021/03/13 02:07:23;;;;;;;1.00;0.32;;;17.80;49.50;;;;;;5022587;28;20038;-62
2021/03/13 02:10:09;;;;;;;0.35;0.15;;;17.80;49.40;;;;;;5015704;28;20092;-62
2021/03/13 02:12:48;;;;;;;1.20;0.30;;;17.80;49.40;;;;;;5018290;28;20030;-62
2021/03/13 02:15:35;;;;;;;0.55;0.30;;;17.90;49.30;;;;;;5018031;28;20113;-64
2021/03/13 02:18:10;;;;;;;1.20;0.30;;;17.90;49.40;;;;;;5018983;28;20463;-63
2021/03/13 02:21:00;;;;;;;1.70;0.35;;;17.80;49.20;;;;;;5022603;28;20043;-63
2021/03/13 02:23:25;;;;;;;1.20;0.35;;;17.80;49.30;;;;;;5014667;28;20634;-63
2021/03/13 02:26:29;;;;;;;0.32;0.25;;;17.80;49.20;;;;;;5014573;28;20053;-62
2021/03/13 02:29:32;;;;;;;0.65;0.22;;;17.80;49.20;;;;;;4989991;28;20038;-62
2021/03/13 02:31:58;;;;;;;0.43;0.20;;;17.80;49.10;;;;;;5017207;28;20054;-62
2021/03/13 02:34:27;;;;;;;0.20;0.20;;;17.80;49.10;;;;;;5017937;28;20087;-66
2021/03/13 02:36:52;;;;;;;0.55;0.30;;;17.90;49.20;;;;;;5002478;28;20141;-63
2021/03/13 02:39:19;;;;;;;0.43;0.20;;;17.80;48.90;;;;;;5016927;28;20032;-62
2021/03/13 02:41:47;;;;;;;0.52;0.13;;;17.90;49.00;;;;;;5014617;28;20038;-61
2021/03/13 02:44:14;;;;;;;0.55;0.20;;;17.80;48.90;;;;;;5009580;28;20280;-61
2021/03/13 02:46:48;;;;;;;0.20;0.13;;;17.80;48.90;;;;;;5004027;28;20057;-62
2021/03/13 02:49:14;;;;;;;0.40;0.30;;;17.80;49.00;;;;;;5008982;28;20391;-62
2021/03/13 02:51:39;;;;;;;0.20;0.20;;;17.90;49.10;;;;;;4988691;28;20057;-62
2021/03/13 02:54:05;;;;;;;1.25;0.20;;;17.90;49.00;;;;;;4988941;28;20057;-60
2021/03/13 02:56:31;;;;;;;0.40;0.30;;;17.80;49.10;;;;;;5004148;28;20038;-63
2021/03/13 02:58:57;;;;;;;0.73;0.30;;;17.80;49.20;;;;;;5004819;28;20033;-62
2021/03/13 03:01:25;;;;;;;0.73;0.20;;;17.80;49.10;;;;;;4988301;28;20038;-63
2021/03/13 03:03:51;;;;;;;0.20;0.13;;;17.80;49.20;;;;;;5005040;28;20037;-62
2021/03/13 03:06:18;;;;;;;0.47;0.20;;;17.80;49.20;;;;;;5004378;28;20026;-65
2021/03/13 03:08:43;;;;;;;0.32;0.20;;;17.80;49.40;;;;;;5005524;28;20034;-61
2021/03/13 03:11:09;;;;;;;0.55;0.20;;;17.70;49.30;;;;;;5004818;28;20377;-62
2021/03/13 03:13:35;;;;;;;0.65;0.20;;;17.70;49.40;;;;;;5004529;28;20100;-61
2021/03/13 03:16:00;;;;;;;1.40;0.40;;;17.70;49.40;;;;;;5005748;28;20058;-62
2021/03/13 03:18:27;;;;;;;0.35;0.13;;;17.70;49.50;;;;;;5005859;28;20588;-62
2021/03/13 03:20:52;;;;;;;0.30;0.30;;;17.70;49.60;;;;;;5004386;28;20120;-62
2021/03/13 03:23:18;;;;;;;0.22;0.20;;;17.70;49.70;;;;;;5005568;28;20101;-61
2021/03/13 03:25:43;;;;;;;1.20;0.25;;;17.60;49.60;;;;;;5005103;28;20038;-64
2021/03/13 03:28:13;;;;;;;0.40;0.20;;;17.60;49.70;;;;;;5006509;28;20029;-61
2021/03/13 03:30:38;;;;;;;0.22;0.20;;;17.60;49.70;;;;;;5006613;28;20092;-61
2021/03/13 03:33:04;;;;;;;1.15;0.17;;;17.70;49.80;;;;;;5005169;28;20026;-64
2021/03/13 03:35:30;;;;;;;0.38;0.25;;;17.70;49.80;;;;;;5005854;28;20037;-64
2021/03/13 03:37:57;;;;;;;0.40;0.30;;;17.60;49.70;;;;;;5004167;28;20037;-61
2021/03/13 03:40:23;;;;;;;0.63;0.10;;;17.60;49.70;;;;;;5004104;28;20120;-63
2021/03/13 03:43:13;;;;;;;0.28;0.20;;;17.60;49.70;;;;;;5005944;28;20030;-60
2021/03/13 03:45:40;;;;;;;0.50;0.28;;;17.70;49.80;;;;;;5003894;28;20060;-62
2021/03/13 03:48:10;;;;;;;0.45;0.20;;;17.60;49.70;;;;;;5005276;28;20030;-64
2021/03/13 03:50:35;;;;;;;0.22;0.20;;;17.60;49.70;;;;;;5003895;28;20104;-61
2021/03/13 03:53:01;;;;;;;0.38;0.20;;;17.60;49.70;;;;;;5005681;28;20532;-62
2021/03/13 03:55:27;;;;;;;1.13;0.40;;;17.60;49.80;;;;;;5004058;28;20121;-61
2021/03/13 03:57:53;;;;;;;0.10;0.10;;;17.60;49.70;;;;;;5004179;28;20033;-62
2021/03/13 04:00:19;;;;;;;0.40;0.28;;;17.70;49.70;;;;;;5004803;28;20026;-61
2021/03/13 04:02:44;;;;;;;1.15;0.10;;;17.70;49.70;;;;;;5004956;28;20030;-62
2021/03/13 04:05:10;;;;;;;0.28;0.15;;;17.60;49.70;;;;;;5005536;28;20715;-61
2021/03/13 04:07:36;;;;;;;0.35;0.22;;;17.60;49.60;;;;;;5014480;28;20065;-63
2021/03/13 04:10:06;;;;;;;0.38;0.10;;;17.60;49.60;;;;;;5012463;28;20465;-65
2021/03/13 04:12:32;;;;;;;0.20;0.20;;;17.60;49.70;;;;;;5021628;28;20041;-65
2021/03/13 04:14:57;;;;;;;0.98;0.30;;;17.60;49.60;;;;;;5007993;28;20542;-65
2021/03/13 04:17:23;;;;;;;0.10;0.10;;;17.70;49.60;;;;;;5023042;28;20011;-64
2021/03/13 04:19:48;;;;;;;0.28;0.20;;;17.70;49.50;;;;;;4995706;28;20027;-64
2021/03/13 04:22:14;;;;;;;0.32;0.20;;;17.70;49.50;;;;;;4984707;28;20027;-64
2021/03/13 04:24:39;;;;;;;0.20;0.10;;;17.70;49.40;;;;;;4984921;28;20045;-64
2021/03/13 04:27:05;;;;;;;0.00;0.00;;;17.70;49.30;;;;;;4983861;28;20502;-64
2021/03/13 04:29:31;;;;;;;0.10;0.10;;;17.80;49.30;;;;;;4984368;28;20034;-66
2021/03/13 04:31:57;;;;;;;0.20;0.20;;;17.70;49.20;;;;;;5011465;28;20525;-67
2021/03/13 04:34:23;;;;;;;0.90;0.10;;;17.80;49.20;;;;;;4979536;28;20157;-65
2021/03/13 04:36:48;;;;;;;0.38;0.10;;;17.80;49.10;;;;;;5004286;28;20029;-65
2021/03/13 04:39:14;;;;;;;0.20;0.20;;;17.80;49.10;;;;;;5005182;28;20532;-66
2021/03/13 04:41:39;;;;;;;0.30;0.10;;;17.80;49.70;;;;;;4995050;28;20026;-66
2021/03/13 04:44:05;;;;;;;0.22;0.20;;;17.80;49.10;;;;;;4999778;28;20041;-64
2021/03/13 04:46:35;;;;;;;0.45;0.20;;;17.80;49.10;;;;;;5004514;28;20053;-64
2021/03/13 04:49:03;;;;;;;1.00;0.20;;;17.70;49.10;;;;;;5005241;28;20068;-64
2021/03/13 04:51:29;;;;;;;1.33;0.28;;;17.70;49.00;;;;;;5004717;28;20032;-65
2021/03/13 04:53:54;;;;;;;0.30;0.20;;;17.80;49.00;;;;;;5004893;28;20112;-64
2021/03/13 04:56:20;;;;;;;0.25;0.20;;;17.80;49.00;;;;;;4994664;28;20053;-65
2021/03/13 04:58:45;;;;;;;1.52;0.28;;;17.80;49.00;;;;;;4993290;28;20038;-65
2021/03/13 05:01:12;;;;;;;0.45;0.20;;;17.70;49.00;;;;;;4999869;28;20038;-65
2021/03/13 05:03:37;;;;;;;0.82;0.30;;;17.70;49.00;;;;;;4985237;28;20481;-66
2021/03/13 05:06:03;;;;;;;0.20;0.20;;;17.70;49.00;;;;;;4984309;28;20114;-65
2021/03/13 05:08:28;;;;;;;0.10;0.10;;;17.70;48.90;;;;;;4984615;28;20034;-66
2021/03/13 05:10:54;;;;;;;0.20;0.20;;;17.70;48.90;;;;;;4985004;28;20065;-65
2021/03/13 05:13:20;;;;;;;0.17;0.10;;;17.70;48.90;;;;;;5000263;28;20034;-66
2021/03/13 05:15:45;;;;;;;0.70;0.22;;;17.70;48.90;;;;;;4984938;28;20034;-65
2021/03/13 05:18:11;;;;;;;0.50;0.25;;;17.70;48.90;;;;;;4983557;28;20420;-66
2021/03/13 05:20:36;;;;;;;0.47;0.17;;;17.70;48.90;;;;;;4984660;28;20038;-65
2021/03/13 05:23:01;;;;;;;0.65;0.30;;;17.70;48.90;;;;;;4985262;28;20046;-65
2021/03/13 05:25:27;;;;;;;0.52;0.40;;;17.70;48.80;;;;;;4987990;28;20049;-65
2021/03/13 05:27:53;;;;;;;0.10;0.10;;;17.80;48.80;;;;;;4990155;28;20034;-66
2021/03/13 05:30:19;;;;;;;0.10;0.10;;;17.80;48.60;;;;;;5000173;28;20544;-63
2021/03/13 05:32:44;;;;;;;0.70;0.28;;;17.80;48.50;;;;;;4983995;28;20027;-65
2021/03/13 05:35:11;;;;;;;0.43;0.20;;;17.80;48.50;;;;;;4984632;28;20425;-65
2021/03/13 05:37:37;;;;;;;0.28;0.20;;;17.80;48.50;;;;;;4966646;28;20560;-66
2021/03/13 05:40:06;;;;;;;1.65;0.20;;;17.80;48.40;;;;;;4984640;28;20042;-65
2021/03/13 05:42:32;;;;;;;0.20;0.20;;;17.80;48.40;;;;;;4984845;28;20049;-65
2021/03/13 05:44:57;;;;;;;0.50;0.20;;;17.90;48.40;;;;;;4983467;28;20035;-65
2021/03/13 05:47:23;;;;;;;0.25;0.10;;;17.80;48.20;;;;;;4983101;28;20409;-65
2021/03/13 05:49:56;;;;;;;0.17;0.17;;;17.90;48.30;;;;;;4984414;28;20422;-66
2021/03/13 05:52:22;;;;;;;0.20;0.20;;;17.80;48.40;;;;;;4967689;28;20081;-65
2021/03/13 05:54:50;;;;;;;1.40;0.30;;;17.80;48.30;;;;;;4992164;28;20046;-66
2021/03/13 05:57:15;;;;;;;0.43;0.10;;;17.80;48.20;;;;;;5005974;28;20026;-66
2021/03/13 05:59:41;;;;;;;1.55;0.50;;;17.80;48.30;;;;;;5002632;28;20026;-66
2021/03/13 06:02:07;;;;;;;1.75;0.30;;;17.80;48.20;;;;;;5001894;28;20037;-63
2021/03/13 06:04:33;;;;;;;0.77;0.45;;;17.80;48.30;;;;;;5003217;28;20041;-65
2021/03/13 06:06:59;;;;;;;1.63;0.30;;;17.80;48.30;;;;;;5002261;28;20034;-64
2021/03/13 06:09:24;;;;;;;0.60;0.10;;;17.80;48.40;;;;;;5000992;28;20532;-66
2021/03/13 06:11:51;;;;;;;0.38;0.20;;;17.70;48.30;;;;;;5003880;28;20028;-67
2021/03/13 06:14:26;;;;;;;1.00;0.30;;;17.70;48.40;;;;;;5005418;28;20033;-64
2021/03/13 06:16:52;;;;;;;1.52;0.30;;;17.70;48.60;;;;;;5001610;28;20034;-64
2021/03/13 06:19:17;;;;;;;0.38;0.17;;;17.60;48.60;;;;;;5004959;28;20048;-66
2021/03/13 06:21:43;;;;;;;1.42;0.40;;;17.60;48.70;;;;;;5004858;28;20046;-65
2021/03/13 06:24:23;;;;;;;0.30;0.22;;;17.60;48.90;;;;;;5008086;28;20037;-65
2021/03/13 06:26:59;;;;;;;2.03;0.40;;;17.60;49.00;;;;;;5019366;28;20052;-65
2021/03/13 06:29:25;;;;;;;0.50;0.40;;;17.60;48.90;;;;;;5019267;28;20038;-68
2021/03/13 06:32:12;;;;;;;0.47;0.20;;;17.60;49.00;;;;;;5019210;28;20053;-64
2021/03/13 06:34:38;;;;;;;1.65;0.30;;;17.60;49.00;;;;;;5015898;28;20068;-65
2021/03/13 06:37:24;;;;;;;0.32;0.20;;;17.60;49.00;;;;;;5012250;28;20493;-66
2021/03/13 06:39:49;;;;;;;3.92;0.30;;;17.50;49.00;;;;;;5018290;28;20056;-65
2021/03/13 06:42:21;;;;;;;2.15;0.30;;;17.60;49.00;;;;;;5021468;28;20607;-63
2021/03/13 06:44:56;;;;;;;1.27;0.20;;;17.60;49.00;;;;;;5015996;28;20460;-63
2021/03/13 06:47:38;;;;;;;0.98;0.13;;;17.60;48.80;;;;;;5020056;28;20109;-66
2021/03/13 06:50:14;;;;;;;0.77;0.30;;;17.60;48.70;;;;;;5017123;28;20037;-65
2021/03/13 06:52:40;;;;;;;0.28;0.15;;;17.70;48.60;;;;;;5015954;28;20137;-65
2021/03/13 06:55:06;;;;;;;3.92;0.50;;;17.70;48.70;;;;;;5014385;28;20125;-65
2021/03/13 06:57:31;;;;;;;0.73;0.30;;;17.70;48.60;;;;;;5016987;28;20034;-64
2021/03/13 07:00:00;;;;;;;6.28;0.32;;;17.70;48.80;;;;;;5017148;28;20492;-66
2021/03/13 07:02:26;;;;;;;2.15;0.40;;;17.70;48.60;;;;;;5016537;28;20122;-65
2021/03/13 07:04:51;;;;;;;1.38;0.30;;;17.70;48.30;;;;;;5013077;28;20168;-67
2021/03/13 07:07:27;;;;;;;1.17;0.40;;;17.70;48.00;;;;;;5012948;28;20084;-65
2021/03/13 07:09:57;;;;;;;3.40;0.30;;;17.70;47.90;;;;;;5015134;28;20487;-64
2021/03/13 07:12:31;;;;;;;3.83;0.30;;;17.70;47.90;;;;;;5016080;28;20125;-66
2021/03/13 07:15:11;;;;;;;1.83;0.10;;;17.70;48.10;;;;;;5015688;28;20495;-64
2021/03/13 07:17:37;;;;;;;3.15;0.35;;;17.70;48.20;;;;;;5014208;28;20407;-65
2021/03/13 07:20:02;;;;;;;1.73;0.50;;;17.60;48.30;;;;;;5013159;28;20117;-65
2021/03/13 07:22:28;;;;;;;1.08;0.35;;;17.60;48.50;;;;;;5015651;28;20034;-67
2021/03/13 07:24:54;;;;;;;1.73;0.20;;;17.50;48.70;;;;;;5017468;28;20120;-66
2021/03/13 07:27:21;;;;;;;1.70;0.38;;;17.50;49.00;;;;;;5016108;28;20037;-66
2021/03/13 07:29:46;;;;;;;1.85;0.45;;;17.50;49.20;;;;;;5004275;28;20026;-65
2021/03/13 07:32:15;;;;;;;1.27;0.40;;;17.50;49.30;;;;;;5025311;28;20033;-66
2021/03/13 07:34:40;;;;;;;3.95;0.45;;;17.50;49.50;;;;;;5008183;28;20037;-66
2021/03/13 07:37:06;;;;;;;0.75;0.20;;;17.50;49.80;;;;;;5021205;28;20033;-65
2021/03/13 07:39:41;;;;;;;0.85;0.20;;;17.50;49.60;;;;;;5007521;28;20036;-66
2021/03/13 07:42:19;;;;;;;0.57;0.20;;;17.50;49.60;;;;;;5007729;28;20026;-66
2021/03/13 07:44:45;;;;;;;1.55;0.40;;;17.50;49.70;;;;;;5025818;28;20264;-67
2021/03/13 07:47:13;;;;;;;1.42;0.30;;;17.50;49.70;;;;;;5024086;28;20038;-66
2021/03/13 07:49:38;;;;;;;1.00;0.38;;;17.50;49.80;;;;;;5025944;28;20029;-66
2021/03/13 07:52:05;;;;;;;0.32;0.20;;;17.50;49.90;;;;;;5025554;28;20112;-66
2021/03/13 07:54:31;;;;;;;2.67;0.50;;;17.50;50.00;;;;;;5025265;28;20034;-65
2021/03/13 07:56:58;;;;;;;2.30;0.30;;;17.50;50.00;;;;;;5007681;28;20474;-66
2021/03/13 07:59:49;;;;;;;3.60;0.47;;;17.50;50.20;;;;;;5004686;28;20040;-65
2021/03/13 08:02:30;;;;;;;1.50;0.60;;;17.50;50.40;;;;;;5021404;28;20373;-64
2021/03/13 08:04:56;;;;;;;1.45;0.30;;;17.50;50.80;;;;;;5014983;28;20041;-66
2021/03/13 08:07:23;;;;;;;2.50;0.30;;;17.50;50.90;;;;;;5014341;28;20033;-64
2021/03/13 08:09:48;;;;;;;0.75;0.20;;;17.50;51.00;;;;;;5016361;28;20105;-63
2021/03/13 08:12:38;;;;;;;1.33;0.35;;;17.50;51.00;;;;;;5016751;28;20037;-63
2021/03/13 08:15:12;;;;;;;0.52;0.25;;;17.50;51.00;;;;;;5022919;28;20033;-63
2021/03/13 08:17:39;;;;;;;1.50;0.30;;;17.50;51.10;;;;;;5023330;28;20029;-63
2021/03/13 08:20:06;;;;;;;0.45;0.17;;;17.50;50.90;;;;;;5025354;28;20268;-64
2021/03/13 08:22:31;;;;;;;1.38;0.20;;;17.40;50.80;;;;;;5025193;28;20496;-64
2021/03/13 08:24:57;;;;;;;0.63;0.20;;;17.50;50.70;;;;;;5023964;28;20037;-65
2021/03/13 08:27:38;;;;;;;1.95;0.10;;;17.50;50.70;;;;;;5024130;28;20232;-65
2021/03/13 08:30:16;;;;;;;2.33;0.20;;;17.50;50.50;;;;;;5024420;28;20534;-63
2021/03/13 08:32:57;;;;;;;0.10;0.10;;;17.50;50.30;;;;;;5024683;28;20068;-62
2021/03/13 08:35:46;;;;;;;1.55;0.20;;;17.50;50.10;;;;;;5012879;28;20033;-66
2021/03/13 08:38:12;;;;;;;0.25;0.20;;;17.50;50.00;;;;;;5015605;28;20106;-64
2021/03/13 08:40:46;;;;;;;0.30;0.20;;;17.50;50.00;;;;;;5016669;28;20032;-67
2021/03/13 08:43:34;;;;;;;0.28;0.20;;;17.40;49.90;;;;;;4998208;28;20034;-65
2021/03/13 08:45:59;;;;;;;1.30;0.30;;;17.50;49.50;;;;;;5012215;28;20088;-63
2021/03/13 08:48:59;;;;;;;3.25;0.30;;;17.60;49.60;;;;;;5011965;28;20644;-62
2021/03/13 08:51:24;;;;;;;0.52;0.25;;;17.60;49.80;;;;;;5018517;28;20297;-63
2021/03/13 08:53:50;;;;;;;2.40;0.32;;;17.70;49.80;;;;;;5024097;28;20033;-64
2021/03/13 08:56:35;;;;;;;2.47;0.20;;;17.70;49.90;;;;;;5022462;28;20722;-65
2021/03/13 08:59:11;;;;;;;1.55;0.20;;;17.70;50.20;;;;;;5012568;28;20075;-65
2021/03/13 09:01:37;;;;;;;1.05;0.17;;;17.70;50.20;;;;;;5013203;28;20052;-65
2021/03/13 09:04:02;;;;;;;0.20;0.10;;;17.70;50.20;;;;;;5014895;28;20551;-65
2021/03/13 09:06:27;;;;;;;1.73;0.40;;;17.70;50.30;;;;;;5014643;28;20046;-65
2021/03/13 09:09:10;;;;;;;1.80;0.32;;;17.70;50.10;;;;;;5003894;28;20384;-60
2021/03/13 09:11:36;;;;;;;1.35;0.25;;;17.70;50.10;;;;;;5001821;28;20118;-66
2021/03/13 09:14:02;;;;;;;0.85;0.30;;;17.70;50.30;;;;;;5004477;28;20543;-66
2021/03/13 09:16:33;;;;;;;1.35;0.45;;;17.70;50.10;;;;;;5004164;28;20050;-65
2021/03/13 09:18:58;;;;;;;4.47;0.50;;;17.70;50.10;;;;;;5003612;28;20580;-66
2021/03/13 09:21:46;;;;;;;1.48;0.30;;;17.80;50.60;;;;;;5004786;28;20120;-66
2021/03/13 09:24:17;;;;;;;3.58;0.68;;;17.90;50.60;;;;;;5006239;28;20064;-65
2021/03/13 09:26:46;;;;;;;1.50;0.40;;;17.90;49.80;;;;;;5007428;28;20125;-66
2021/03/13 09:29:12;;;;;;;3.55;0.40;;;17.90;49.70;;;;;;5003362;28;20034;-65
2021/03/13 09:31:37;;;;;;;2.05;0.57;;;17.90;49.60;;;;;;4987147;28;20026;-64
2021/03/13 09:34:19;;;;;;;3.53;0.80;;;17.90;49.50;;;;;;5005569;28;20072;-65
2021/03/13 09:36:46;;;;;;;4.18;0.50;;;18.00;49.50;;;;;;5004509;28;20118;-66
2021/03/13 09:39:12;;;;;;;13.52;1.20;;;17.90;49.40;;;;;;5003376;28;20574;-65
2021/03/13 09:41:37;;;;;;;6.13;0.93;;;18.00;49.30;;;;;;4986933;28;20117;-67
2021/03/13 09:44:03;;;;;;;5.80;0.60;;;18.00;49.20;;;;;;5003624;28;20041;-65
2021/03/13 09:46:29;;;;;;;10.15;1.15;;;17.90;49.00;;;;;;5004538;28;20041;-64
2021/03/13 09:48:55;;;;;;;7.20;1.52;;;17.90;48.90;;;;;;5003215;28;20034;-63
2021/03/13 09:51:20;;;;;;;4.00;0.70;;;17.90;48.80;;;;;;5004764;28;20041;-63
2021/03/13 09:53:45;;;;;;;4.18;0.63;;;17.90;48.50;;;;;;5003515;28;20618;-63
2021/03/13 09:56:11;;;;;;;2.28;0.95;;;17.90;48.60;;;;;;5006138;28;20042;-62
2021/03/13 09:58:37;;;;;;;7.80;1.08;;;17.90;48.40;;;;;;5008575;28;20058;-62
2021/03/13 10:01:02;;;;;;;2.95;0.80;;;17.80;48.40;;;;;;5007942;28;20114;-62
2021/03/13 10:03:28;;;;;;;7.40;0.70;;;17.80;48.40;;;;;;5007849;28;20046;-62
2021/03/13 10:05:54;;;;;;;7.75;0.95;;;17.80;48.60;;;;;;5007593;28;20049;-59
2021/03/13 10:08:20;;;;;;;3.55;0.65;;;17.70;48.80;;;;;;5007908;28;20038;-62
2021/03/13 10:10:47;;;;;;;13.20;1.88;;;17.60;48.80;;;;;;5008469;28;20088;-64
2021/03/13 10:13:14;;;;;;;13.15;2.03;;;17.60;49.00;;;;;;5007718;28;20033;-64
2021/03/13 10:15:40;;;;;;;13.23;1.40;;;17.60;49.20;;;;;;5007932;28;20045;-63
2021/03/13 10:18:13;;;;;;;17.95;2.45;;;17.60;49.30;;;;;;5007501;28;20108;-63
2021/03/13 10:20:53;;;;;;;12.68;1.30;;;17.50;49.30;;;;;;5008591;28;20034;-64
2021/03/13 10:23:24;;;;;;;9.73;1.75;;;17.50;49.30;;;;;;5008436;28;20033;-63
2021/03/13 10:26:03;;;;;;;10.38;1.90;;;17.60;49.20;;;;;;5007970;28;20029;-63
2021/03/13 10:28:30;;;;;;;10.50;1.45;;;17.60;49.10;;;;;;5007143;28;20770;-64
2021/03/13 10:31:06;;;;;;;9.57;1.33;;;17.60;49.00;;;;;;5007168;28;20058;-66
2021/03/13 10:33:31;;;;;;;8.23;1.65;;;17.60;49.00;;;;;;5007561;28;20520;-63
2021/03/13 10:35:57;;;;;;;9.55;1.42;;;17.60;48.60;;;;;;5007402;28;20041;-63
2021/03/13 10:38:22;;;;;;;11.07;1.58;;;17.60;48.40;;;;;;5007685;28;20496;-63
2021/03/13 10:40:49;;;;;;;9.55;1.52;;;17.70;48.40;;;;;;5007457;28;20026;-64
2021/03/13 10:43:16;;;;;;;9.23;2.72;;;17.70;48.10;;;;;;5006163;28;20033;-64
2021/03/13 10:45:45;;;;;;;12.55;1.58;;;17.70;48.00;;;;;;5008901;28;20520;-64
2021/03/13 10:48:11;;;;;;;8.02;1.40;;;17.70;47.90;;;;;;5007067;28;20038;-62
2021/03/13 10:50:42;;;;;;;14.15;1.90;;;17.80;47.80;;;;;;5007591;28;20461;-63
2021/03/13 10:53:27;;;;;;;7.45;2.50;;;17.80;47.90;;;;;;5006007;28;20034;-63
2021/03/13 10:55:53;;;;;;;15.60;2.00;;;17.80;47.80;;;;;;5007289;28;20088;-62
2021/03/13 10:58:26;;;;;;;15.00;2.55;;;17.80;47.80;;;;;;5006629;28;20245;-64
2021/03/13 11:00:52;;;;;;;14.38;2.05;;;17.70;47.70;;;;;;5006059;28;20895;-63
2021/03/13 11:03:17;;;;;;;12.48;2.20;;;17.80;47.80;;;;;;5007137;28;20064;-63
2021/03/13 11:05:43;;;;;;;9.68;1.60;;;17.80;47.80;;;;;;5006459;28;20022;-63
2021/03/13 11:08:11;;;;;;;10.98;1.58;;;17.80;47.70;;;;;;5005779;28;20124;-63
2021/03/13 11:10:38;;;;;;;12.77;1.63;;;17.80;48.00;;;;;;5005769;28;20034;-63
2021/03/13 11:13:03;;;;;;;8.75;1.30;;;17.80;47.90;;;;;;5006802;28;20030;-63
2021/03/13 11:15:29;;;;;;;16.92;2.00;;;17.80;47.90;;;;;;5006658;28;20088;-63
2021/03/13 11:17:54;;;;;;;9.38;1.42;;;17.80;48.00;;;;;;5006899;28;20408;-61
2021/03/13 11:20:20;;;;;;;11.43;2.15;;;17.70;48.20;;;;;;5006762;28;20030;-63
2021/03/13 11:22:45;;;;;;;6.57;1.60;;;17.70;48.70;;;;;;5005394;28;20033;-63
2021/03/13 11:25:11;;;;;;;6.25;1.08;;;17.70;48.00;;;;;;5006870;28;20037;-63
2021/03/13 11:27:36;;;;;;;12.27;1.85;;;17.70;48.00;;;;;;5006085;28;20532;-65
2021/03/13 11:30:03;;;;;;;8.13;1.63;;;17.70;48.10;;;;;;5006679;28;20034;-63
2021/03/13 11:32:28;;;;;;;10.90;1.45;;;17.70;48.00;;;;;;5006632;28;20041;-64
2021/03/13 11:34:54;;;;;;;10.32;1.27;;;17.70;48.00;;;;;;5006826;28;20095;-63
2021/03/13 11:37:19;;;;;;;7.05;1.20;;;17.70;47.90;;;;;;5005933;28;20030;-63
2021/03/13 11:39:45;;;;;;;9.80;1.40;;;17.70;47.90;;;;;;5005578;28;20041;-65
2021/03/13 11:42:10;;;;;;;9.38;1.23;;;17.70;47.70;;;;;;5006399;28;20057;-62
2021/03/13 11:44:36;;;;;;;14.40;1.70;;;17.70;47.70;;;;;;5005625;28;20137;-64
2021/03/13 11:47:01;;;;;;;8.85;1.65;;;17.70;47.70;;;;;;5005738;28;20695;-64
2021/03/13 11:49:27;;;;;;;6.63;1.20;;;17.70;47.80;;;;;;5006648;28;20592;-64
2021/03/13 11:51:52;;;;;;;4.28;1.40;;;17.70;47.90;;;;;;5006634;28;20121;-63
2021/03/13 11:54:18;;;;;;;6.53;0.88;;;17.60;47.80;;;;;;5006554;28;20511;-63
2021/03/13 11:56:43;;;;;;;6.47;1.00;;;17.60;48.10;;;;;;5006065;28;20042;-65
2021/03/13 11:59:09;;;;;;;6.35;1.35;;;17.60;48.10;;;;;;5006869;28;20116;-64
2021/03/13 12:01:34;;;;;;;6.85;1.40;;;17.60;47.80;;;;;;5008182;28;20456;-64
2021/03/13 12:04:00;;;;;;;4.95;1.17;;;17.60;48.00;;;;;;5012002;28;20026;-64
2021/03/13 12:06:25;;;;;;;2.80;0.88;;;17.60;47.90;;;;;;5009604;28;20049;-64
2021/03/13 12:08:51;;;;;;;6.10;1.35;;;17.60;47.90;;;;;;5006401;28;20029;-64
2021/03/13 12:11:16;;;;;;;2.65;0.85;;;17.60;47.70;;;;;;5005399;28;20553;-64
2021/03/13 12:13:42;;;;;;;3.85;1.08;;;17.70;47.80;;;;;;5005740;28;20030;-63
2021/03/13 12:16:07;;;;;;;4.70;1.00;;;17.60;47.90;;;;;;5016789;23;20050;-59
2021/03/13 12:18:33;;;;;;;4.95;0.90;;;17.60;47.90;;;;;;4999904;28;20085;-61
2021/03/13 12:20:59;;;;;;;8.48;1.40;;;17.60;48.00;;;;;;5001756;28;20026;-61
2021/03/13 12:23:24;;;;;;;6.68;1.30;;;17.60;48.20;;;;;;5002893;28;20037;-60
2021/03/13 12:25:50;;;;;;;7.20;1.17;;;17.50;48.30;;;;;;5002819;28;20033;-61
2021/03/13 12:28:15;;;;;;;3.10;1.10;;;17.40;49.10;;;;;;5002594;28;20025;-61
2021/03/13 12:30:41;;;;;;;4.97;0.60;;;17.40;48.70;;;;;;5003073;28;20033;-61
2021/03/13 12:33:06;;;;;;;3.50;0.65;;;17.40;48.80;;;;;;5002772;28;20065;-59
2021/03/13 12:35:32;;;;;;;3.95;0.93;;;17.40;49.00;;;;;;5004610;28;20038;-63
2021/03/13 12:37:57;;;;;;;4.63;0.90;;;17.30;48.90;;;;;;5003679;28;20076;-61
2021/03/13 12:40:23;;;;;;;5.05;0.95;;;17.30;49.70;;;;;;5002812;28;20109;-63
2021/03/13 12:42:48;;;;;;;3.55;0.70;;;17.30;49.10;;;;;;5004410;28;20390;-61
2021/03/13 12:45:14;;;;;;;4.50;0.77;;;17.30;49.10;;;;;;5003924;28;20080;-60
2021/03/13 12:47:40;;;;;;;3.90;0.98;;;17.30;49.10;;;;;;5004010;28;20042;-60
2021/03/13 12:50:06;;;;;;;3.70;0.68;;;17.30;49.20;;;;;;5003153;28;20028;-60